LEBZ/BJZ METAR and TAF weather

Enter ICAO airport designator
Station Type Date Time Source
LEBZ METAR 2020/07/02 19:00 UTC NOAA

LEBZ 021900Z 27015KT CAVOK 27/08 Q1017


Station Type Date Time Source
LEBZ Decoded METAR 2020/07/02 19:00 UTC NOAA

Badajoz / Talavera La Real, Spain (LEBZ) 38-53N 006-49W 192M
Jul 02, 2020 - 03:00 PM EDT / 2020.07.02 1900 UTC
Wind: from the W (270 degrees) at 17 MPH (15 KT):0
Visibility: greater than 7 mile(s):0
Temperature: 80 F (27 C)
Dew Point: 46 F (8 C)
Relative Humidity: 30%
Pressure (altimeter): 30.03 in. Hg (1017 hPa)
ob: LEBZ 021900Z 27015KT CAVOK 27/08 Q1017
cycle: 19

Station Type Date Time Source
LEBZ TAF 2020/07/02 18:27 UTC NOAA

TAF LEBZ 021700Z 0218/0318 28014KT CAVOK TX34/0315Z TN15/0305Z
BECMG 0302/0304 27004KT

Example: see airport list